Time;durP1;ratioP1;P1;durP2;ratioP2;P2;SDS_P1;SDS_P2;PMS_P1;PMS_P2;Temp;Humidity;BMP_temperature;BMP_pressure;BME280_temperature;BME280_humidity;BME280_pressure;Samples;Min_cycle;Max_cycle;Signal;HPM_P1;HPM_P2
2022/04/09 00:00:52;;;;;;;13.80;2.67;;;3.70;78.30;;;;;;5050130;28;20122;-70
2022/04/09 00:03:18;;;;;;;10.57;1.20;;;3.70;78.20;;;;;;5024109;28;20040;-70
2022/04/09 00:05:44;;;;;;;6.27;1.13;;;3.70;78.20;;;;;;5052458;28;20045;-70
2022/04/09 00:08:10;;;;;;;6.00;1.23;;;3.70;77.80;;;;;;5044896;28;20078;-70
2022/04/09 00:10:35;;;;;;;8.70;1.27;;;3.80;77.50;;;;;;5041862;28;20521;-70
2022/04/09 00:13:01;;;;;;;7.87;1.03;;;3.70;77.20;;;;;;5052984;28;20582;-70
2022/04/09 00:15:27;;;;;;;4.20;1.27;;;3.70;77.10;;;;;;5039296;28;20090;-70
2022/04/09 00:17:52;;;;;;;4.77;0.60;;;3.70;76.80;;;;;;5036454;28;20171;-70
2022/04/09 00:20:19;;;;;;;5.60;0.70;;;3.60;77.10;;;;;;5040206;28;20048;-70
2022/04/09 00:22:45;;;;;;;7.80;1.50;;;3.60;76.80;;;;;;5062511;28;20071;-70
2022/04/09 00:25:13;;;;;;;6.65;0.95;;;3.60;76.90;;;;;;5051860;28;20070;-70
2022/04/09 00:27:39;;;;;;;4.75;1.15;;;3.50;77.00;;;;;;5070315;28;20046;-70
2022/04/09 00:30:08;;;;;;;7.43;1.05;;;3.50;77.10;;;;;;5063866;28;20131;-70
2022/04/09 00:32:34;;;;;;;7.85;1.10;;;3.40;77.20;;;;;;5057103;28;20159;-70
2022/04/09 00:35:00;;;;;;;7.85;1.25;;;3.40;77.50;;;;;;5057671;28;20048;-70
2022/04/09 00:37:26;;;;;;;10.13;1.25;;;3.30;77.70;;;;;;5026200;28;20032;-70
2022/04/09 00:39:52;;;;;;;7.53;1.27;;;3.30;77.90;;;;;;5061762;28;20036;-70
2022/04/09 00:42:18;;;;;;;9.15;1.02;;;3.30;78.20;;;;;;5054096;28;20455;-70
2022/04/09 00:44:45;;;;;;;8.45;1.08;;;3.30;78.40;;;;;;5067975;28;20067;-70
2022/04/09 00:47:12;;;;;;;9.90;1.23;;;3.20;78.40;;;;;;5064813;28;20123;-70
2022/04/09 00:49:39;;;;;;;8.07;0.98;;;3.20;78.80;;;;;;5059226;28;20078;-70
2022/04/09 00:52:07;;;;;;;8.57;1.13;;;3.30;78.60;;;;;;5040214;28;20119;-70
2022/04/09 00:54:36;;;;;;;3.70;0.60;;;3.40;79.00;;;;;;5057593;28;20693;-70
2022/04/09 00:57:05;;;;;;;4.28;0.50;;;3.50;78.90;;;;;;5026321;28;20503;-70
2022/04/09 00:59:44;;;;;;;3.50;0.30;;;3.70;78.20;;;;;;5058673;28;20115;-70
2022/04/09 01:02:11;;;;;;;4.30;0.57;;;3.80;76.30;;;;;;5062707;28;20516;-71
2022/04/09 01:04:42;;;;;;;3.42;0.30;;;3.80;76.00;;;;;;5057256;28;20040;-70
2022/04/09 01:07:08;;;;;;;4.20;0.60;;;3.80;75.90;;;;;;5065017;28;20048;-70
2022/04/09 01:09:34;;;;;;;3.30;0.63;;;3.70;75.60;;;;;;5059173;28;20040;-70
2022/04/09 01:12:01;;;;;;;7.67;0.80;;;3.60;75.70;;;;;;5061920;28;20043;-70
2022/04/09 01:14:26;;;;;;;5.50;0.73;;;3.50;76.00;;;;;;5054507;28;20048;-70
2022/04/09 01:16:54;;;;;;;3.93;0.90;;;3.50;76.30;;;;;;5046254;28;20051;-70
2022/04/09 01:19:19;;;;;;;5.80;0.70;;;3.40;76.70;;;;;;5037875;28;20041;-70
2022/04/09 01:21:48;;;;;;;6.70;1.13;;;3.30;77.20;;;;;;5041551;28;20044;-70
2022/04/09 01:24:14;;;;;;;5.75;1.10;;;3.30;77.90;;;;;;5053228;28;20082;-70
2022/04/09 01:26:39;;;;;;;12.70;1.00;;;3.30;78.30;;;;;;5037852;28;20504;-70
2022/04/09 01:29:06;;;;;;;9.17;1.10;;;3.30;78.70;;;;;;5049613;28;20119;-71
2022/04/09 01:31:31;;;;;;;9.02;0.68;;;3.40;79.00;;;;;;5043541;28;20110;-70
2022/04/09 01:33:57;;;;;;;8.23;0.70;;;3.40;79.00;;;;;;5035554;28;20037;-70
2022/04/09 01:36:23;;;;;;;9.33;1.23;;;3.40;79.00;;;;;;5043276;28;20041;-70
2022/04/09 01:38:48;;;;;;;9.00;1.10;;;3.40;79.10;;;;;;5043839;28;20504;-70
2022/04/09 01:41:14;;;;;;;8.67;0.90;;;3.40;79.10;;;;;;5046954;28;20040;-70
2022/04/09 01:43:41;;;;;;;8.90;1.07;;;3.50;79.20;;;;;;5062940;28;20112;-70
2022/04/09 01:46:07;;;;;;;6.63;1.33;;;3.50;79.30;;;;;;5046254;28;20055;-70
2022/04/09 01:48:33;;;;;;;9.38;0.82;;;3.40;79.30;;;;;;5040074;28;20048;-70
2022/04/09 01:50:59;;;;;;;9.37;1.00;;;3.40;79.50;;;;;;5069529;28;20048;-70
2022/04/09 01:53:24;;;;;;;8.40;1.03;;;3.30;79.30;;;;;;5049065;28;20101;-70
2022/04/09 01:55:50;;;;;;;10.20;0.90;;;3.30;79.20;;;;;;5065025;28;20446;-70
2022/04/09 01:58:16;;;;;;;9.40;1.20;;;3.20;79.10;;;;;;5043266;28;20083;-70
2022/04/09 02:00:42;;;;;;;8.30;0.90;;;3.20;79.10;;;;;;5042180;28;20049;-70
2022/04/09 02:03:07;;;;;;;6.10;0.60;;;3.20;79.10;;;;;;5041718;28;20033;-70
2022/04/09 02:05:34;;;;;;;10.37;1.10;;;3.20;79.00;;;;;;5016990;28;20044;-70
2022/04/09 02:08:01;;;;;;;8.15;0.88;;;3.30;79.00;;;;;;5054762;28;20488;-70
2022/04/09 02:10:28;;;;;;;7.93;0.77;;;3.50;78.90;;;;;;5021571;28;20036;-70
2022/04/09 02:12:54;;;;;;;4.95;0.60;;;3.70;78.50;;;;;;5053851;28;20048;-71
2022/04/09 02:15:20;;;;;;;3.67;0.50;;;3.80;78.10;;;;;;5058364;28;20078;-70
2022/04/09 02:17:46;;;;;;;6.87;0.60;;;3.80;77.80;;;;;;5052028;28;20040;-70
2022/04/09 02:20:14;;;;;;;4.17;0.90;;;3.80;77.50;;;;;;5054063;28;20062;-70
2022/04/09 02:22:45;;;;;;;6.43;0.60;;;3.80;77.60;;;;;;5059298;28;20843;-70
2022/04/09 02:25:19;;;;;;;5.82;0.90;;;3.80;78.50;;;;;;5054791;28;20094;-70
2022/04/09 02:27:45;;;;;;;5.53;0.82;;;3.70;78.70;;;;;;5056078;28;20508;-70
2022/04/09 02:30:11;;;;;;;10.57;0.90;;;3.60;79.00;;;;;;5034688;28;20055;-70
2022/04/09 02:32:49;;;;;;;4.50;0.77;;;3.60;79.40;;;;;;5042295;28;20052;-70
2022/04/09 02:35:15;;;;;;;4.40;0.65;;;3.50;79.30;;;;;;5063197;28;20782;-70
2022/04/09 02:37:41;;;;;;;6.68;0.70;;;3.40;78.90;;;;;;5038013;28;20044;-70
2022/04/09 02:40:08;;;;;;;5.35;0.70;;;3.40;78.80;;;;;;5037700;28;20038;-70
2022/04/09 02:42:38;;;;;;;5.78;0.80;;;3.30;78.40;;;;;;5068102;28;20040;-70
2022/04/09 02:45:05;;;;;;;6.28;0.60;;;3.30;78.30;;;;;;5057132;28;20032;-70
2022/04/09 02:47:31;;;;;;;4.35;0.70;;;3.10;78.30;;;;;;5060986;28;20059;-70
2022/04/09 02:49:59;;;;;;;8.30;1.20;;;3.00;78.70;;;;;;5038550;28;20038;-70
2022/04/09 02:52:27;;;;;;;6.10;0.88;;;2.90;79.00;;;;;;5055910;28;20063;-70
2022/04/09 02:54:53;;;;;;;6.28;0.45;;;2.80;79.10;;;;;;5041085;28;20217;-70
2022/04/09 02:57:19;;;;;;;10.90;1.07;;;2.70;79.50;;;;;;5050386;28;20128;-71
2022/04/09 02:59:44;;;;;;;6.33;0.90;;;2.70;79.80;;;;;;5056116;28;20073;-70
2022/04/09 03:02:10;;;;;;;6.23;0.73;;;2.60;79.90;;;;;;5059033;28;20396;-70
2022/04/09 03:04:36;;;;;;;10.23;1.43;;;2.50;80.00;;;;;;5038843;28;20048;-70
2022/04/09 03:07:01;;;;;;;11.87;1.33;;;2.50;80.20;;;;;;5040393;28;20040;-70
2022/04/09 03:09:27;;;;;;;6.40;1.20;;;2.40;80.60;;;;;;5052828;28;20109;-70
2022/04/09 03:11:53;;;;;;;11.23;1.80;;;2.40;80.70;;;;;;5058674;28;20089;-70
2022/04/09 03:14:20;;;;;;;13.23;1.30;;;2.30;80.80;;;;;;5053171;28;20481;-70
2022/04/09 03:16:46;;;;;;;11.82;1.10;;;2.30;81.20;;;;;;5055588;28;20115;-70
2022/04/09 03:19:11;;;;;;;8.25;1.30;;;2.40;81.60;;;;;;5040131;28;20537;-70
2022/04/09 03:21:37;;;;;;;8.63;1.20;;;2.40;81.80;;;;;;5045970;28;20039;-70
2022/04/09 03:24:03;;;;;;;8.33;1.03;;;2.50;81.60;;;;;;5034519;28;20043;-70
2022/04/09 03:26:29;;;;;;;11.48;1.15;;;2.50;81.10;;;;;;5054496;28;20121;-70
2022/04/09 03:28:55;;;;;;;6.87;0.67;;;2.60;80.80;;;;;;5058425;28;20064;-70
2022/04/09 03:31:21;;;;;;;7.27;1.17;;;2.70;80.70;;;;;;5050344;28;20707;-70
2022/04/09 03:33:51;;;;;;;5.07;0.70;;;2.70;80.50;;;;;;5036783;28;20040;-70
2022/04/09 03:36:16;;;;;;;5.70;0.73;;;2.70;80.30;;;;;;5054819;28;20044;-70
2022/04/09 03:38:42;;;;;;;8.30;0.87;;;2.70;80.40;;;;;;5048423;28;20507;-70
2022/04/09 03:41:08;;;;;;;10.63;0.83;;;2.70;80.20;;;;;;5049791;28;20059;-70
2022/04/09 03:43:34;;;;;;;8.87;0.83;;;2.80;80.20;;;;;;5029550;28;20040;-71
2022/04/09 03:46:00;;;;;;;7.03;1.00;;;2.80;80.20;;;;;;5041737;28;20040;-70
2022/04/09 03:48:25;;;;;;;7.63;1.10;;;2.90;80.20;;;;;;5056778;28;20067;-71
2022/04/09 03:50:51;;;;;;;5.53;1.17;;;2.90;79.80;;;;;;5048649;28;20051;-70
2022/04/09 03:53:20;;;;;;;9.17;1.30;;;2.80;79.50;;;;;;5037137;28;20040;-70
2022/04/09 03:55:49;;;;;;;9.80;1.42;;;2.80;79.70;;;;;;5061007;28;20504;-70
2022/04/09 03:58:19;;;;;;;4.50;0.85;;;2.70;79.80;;;;;;5045495;28;20043;-70
2022/04/09 04:00:45;;;;;;;6.60;1.00;;;2.70;79.90;;;;;;5025279;28;20051;-70
2022/04/09 04:03:11;;;;;;;7.88;1.00;;;2.70;80.20;;;;;;5026759;28;20456;-70
2022/04/09 04:05:38;;;;;;;13.57;2.25;;;2.70;80.30;;;;;;5047624;28;20123;-70
2022/04/09 04:08:07;;;;;;;15.45;1.77;;;2.70;80.60;;;;;;5061910;28;20120;-70
2022/04/09 04:10:36;;;;;;;10.35;1.42;;;2.90;81.70;;;;;;5040730;28;20040;-70
2022/04/09 04:13:02;;;;;;;13.73;1.50;;;3.20;81.70;;;;;;5033604;28;20672;-70
2022/04/09 04:15:28;;;;;;;7.55;1.20;;;3.30;81.50;;;;;;5036348;28;20082;-70
2022/04/09 04:17:53;;;;;;;8.77;1.17;;;3.40;81.10;;;;;;5044087;28;20044;-70
2022/04/09 04:20:19;;;;;;;7.43;1.37;;;3.40;80.80;;;;;;5041609;28;20044;-70
2022/04/09 04:22:45;;;;;;;5.90;0.90;;;3.40;80.30;;;;;;5051630;28;20036;-70
2022/04/09 04:25:10;;;;;;;6.50;1.10;;;3.40;79.60;;;;;;5046481;28;20131;-70
2022/04/09 04:27:43;;;;;;;7.83;0.77;;;3.40;79.20;;;;;;5033124;28;20044;-70
2022/04/09 04:30:10;;;;;;;8.38;0.77;;;3.30;78.70;;;;;;5042747;28;20040;-70
2022/04/09 04:32:36;;;;;;;7.40;0.70;;;3.30;78.30;;;;;;5064122;28;20769;-70
2022/04/09 04:35:03;;;;;;;7.60;0.93;;;3.20;78.40;;;;;;5037162;28;20074;-70
2022/04/09 04:37:39;;;;;;;9.52;0.75;;;3.20;78.40;;;;;;5052137;28;20043;-70
2022/04/09 04:40:06;;;;;;;5.80;0.68;;;3.10;78.50;;;;;;5053538;28;20040;-70
2022/04/09 04:42:32;;;;;;;9.07;1.60;;;3.10;78.50;;;;;;5035921;28;20070;-70
2022/04/09 04:44:57;;;;;;;6.37;1.00;;;3.10;78.90;;;;;;5045204;28;20579;-71
2022/04/09 04:47:23;;;;;;;8.13;0.73;;;3.10;79.00;;;;;;5005736;28;20040;-71
2022/04/09 04:49:49;;;;;;;11.30;1.43;;;3.20;79.30;;;;;;5055254;28;20047;-70
2022/04/09 04:52:14;;;;;;;7.77;1.07;;;3.20;79.80;;;;;;5038708;28;20064;-70
2022/04/09 04:54:40;;;;;;;6.63;0.90;;;3.30;79.90;;;;;;5059530;28;20033;-70
2022/04/09 04:57:06;;;;;;;9.33;1.40;;;3.30;80.10;;;;;;5037087;28;20895;-70
2022/04/09 04:59:32;;;;;;;13.43;1.97;;;3.30;80.30;;;;;;5046861;28;20511;-70
2022/04/09 05:01:57;;;;;;;9.73;2.10;;;3.40;80.70;;;;;;5041061;28;20144;-71
2022/04/09 05:04:25;;;;;;;10.13;1.10;;;3.50;80.80;;;;;;5034743;28;20047;-70
2022/04/09 05:06:51;;;;;;;8.48;1.00;;;3.50;80.80;;;;;;5051372;28;20051;-70
2022/04/09 05:09:18;;;;;;;6.22;1.13;;;3.60;80.30;;;;;;5009553;28;20041;-70
2022/04/09 05:11:44;;;;;;;5.10;0.65;;;3.50;80.10;;;;;;5038930;28;20143;-70
2022/04/09 05:14:10;;;;;;;8.13;1.60;;;3.50;79.80;;;;;;5041674;28;20043;-70
2022/04/09 05:16:35;;;;;;;3.90;0.83;;;3.60;79.30;;;;;;5061266;28;20040;-71
2022/04/09 05:19:01;;;;;;;7.67;1.17;;;3.60;78.70;;;;;;5043698;28;20293;-71
2022/04/09 05:21:27;;;;;;;7.47;0.90;;;3.60;78.10;;;;;;5048939;28;20043;-70
2022/04/09 05:23:52;;;;;;;6.67;1.33;;;3.60;78.30;;;;;;5038707;28;20134;-70
2022/04/09 05:26:18;;;;;;;11.17;1.43;;;3.50;78.10;;;;;;5043176;28;20082;-70
2022/04/09 05:28:44;;;;;;;7.10;0.90;;;3.50;78.40;;;;;;5068563;28;20044;-70
2022/04/09 05:31:11;;;;;;;6.00;0.80;;;3.50;78.50;;;;;;5035198;28;20036;-70
2022/04/09 05:33:38;;;;;;;9.63;1.20;;;3.50;78.70;;;;;;5068439;28;20081;-70
2022/04/09 05:36:05;;;;;;;8.45;1.27;;;3.50;78.70;;;;;;5068460;28;20127;-71
2022/04/09 05:38:32;;;;;;;10.43;0.98;;;3.50;78.90;;;;;;5056593;28;20048;-70
2022/04/09 05:40:58;;;;;;;12.40;1.20;;;3.60;79.10;;;;;;5059897;28;20072;-70
2022/04/09 05:43:24;;;;;;;11.38;1.30;;;3.60;79.30;;;;;;5041809;28;20044;-70
2022/04/09 05:45:50;;;;;;;9.70;1.40;;;3.70;79.30;;;;;;5044334;28;20047;-70
2022/04/09 05:48:16;;;;;;;12.30;1.20;;;3.80;79.20;;;;;;5034641;28;20048;-70
2022/04/09 05:50:41;;;;;;;7.87;1.20;;;3.80;79.30;;;;;;5029643;28;20075;-70
2022/04/09 05:53:07;;;;;;;10.27;1.30;;;3.90;79.00;;;;;;5053860;28;20131;-70
2022/04/09 05:55:33;;;;;;;7.93;1.67;;;4.00;78.80;;;;;;5048092;28;20115;-71
2022/04/09 05:57:59;;;;;;;9.73;0.93;;;4.20;78.40;;;;;;5037197;28;20550;-70
2022/04/09 06:00:25;;;;;;;12.48;1.80;;;4.30;78.20;;;;;;5035265;28;20428;-70
2022/04/09 06:02:51;;;;;;;11.30;1.73;;;4.40;77.70;;;;;;5053648;28;20044;-70
2022/04/09 06:05:17;;;;;;;12.27;2.00;;;4.70;77.50;;;;;;5062576;28;20294;-70
2022/04/09 06:07:43;;;;;;;8.55;2.03;;;4.90;77.10;;;;;;5068916;28;20518;-70
2022/04/09 06:10:10;;;;;;;8.20;1.40;;;5.10;76.70;;;;;;5046878;28;20070;-70
2022/04/09 06:12:36;;;;;;;9.07;1.50;;;5.30;75.60;;;;;;5058782;28;20051;-70
2022/04/09 06:15:03;;;;;;;8.25;1.23;;;5.20;74.50;;;;;;5044956;28;20198;-71
2022/04/09 06:17:29;;;;;;;8.73;1.27;;;5.20;74.80;;;;;;5034063;28;20112;-71
2022/04/09 06:19:55;;;;;;;6.37;0.90;;;5.10;75.50;;;;;;5032771;28;20041;-70
2022/04/09 06:22:21;;;;;;;9.47;1.40;;;5.00;75.90;;;;;;5037628;28;20040;-71
2022/04/09 06:24:46;;;;;;;9.23;0.90;;;4.90;75.80;;;;;;5039943;28;20063;-71
2022/04/09 06:27:12;;;;;;;8.10;0.80;;;4.80;76.00;;;;;;5035301;28;20041;-71
2022/04/09 06:29:38;;;;;;;14.63;1.47;;;4.70;76.10;;;;;;5063542;28;20100;-71
2022/04/09 06:32:04;;;;;;;12.00;1.93;;;4.50;76.10;;;;;;5070184;28;20055;-71
2022/04/09 06:34:30;;;;;;;10.20;1.77;;;4.50;76.70;;;;;;5042993;28;20051;-71
2022/04/09 06:36:56;;;;;;;9.05;1.38;;;4.60;77.20;;;;;;5053434;28;20036;-71
2022/04/09 06:39:23;;;;;;;10.17;1.77;;;4.70;77.30;;;;;;5049486;28;20039;-71
2022/04/09 06:41:50;;;;;;;9.80;1.30;;;4.90;76.80;;;;;;5041585;28;20398;-71
2022/04/09 06:44:16;;;;;;;11.27;1.38;;;5.00;76.80;;;;;;5023525;28;20052;-70
2022/04/09 06:46:43;;;;;;;6.38;1.25;;;5.20;76.70;;;;;;5046772;28;20064;-70
2022/04/09 06:49:11;;;;;;;7.13;0.90;;;5.20;75.90;;;;;;5049946;28;20469;-70
2022/04/09 06:51:38;;;;;;;5.85;0.73;;;5.20;75.00;;;;;;5038605;28;20126;-70
2022/04/09 06:54:04;;;;;;;8.07;0.80;;;5.10;75.00;;;;;;5058512;28;20512;-70
2022/04/09 06:56:30;;;;;;;6.87;0.57;;;5.10;74.70;;;;;;5037575;28;20071;-70
2022/04/09 06:58:55;;;;;;;5.40;0.70;;;5.00;74.70;;;;;;5037823;28;20040;-70
2022/04/09 07:01:21;;;;;;;7.10;1.07;;;5.10;74.80;;;;;;5035115;28;20064;-70
2022/04/09 07:03:47;;;;;;;7.23;0.90;;;5.20;74.90;;;;;;5052618;28;20492;-71
2022/04/09 07:06:15;;;;;;;8.17;1.10;;;5.20;74.90;;;;;;5014520;28;20045;-70
2022/04/09 07:08:42;;;;;;;8.63;1.02;;;5.30;74.60;;;;;;5057870;28;20040;-70
2022/04/09 07:11:08;;;;;;;8.73;0.82;;;5.40;74.20;;;;;;5032263;28;20046;-70
2022/04/09 07:13:33;;;;;;;11.43;0.80;;;5.50;74.10;;;;;;5033914;28;20119;-70
2022/04/09 07:15:59;;;;;;;6.57;0.83;;;5.60;72.40;;;;;;5053279;28;20556;-70
2022/04/09 07:18:25;;;;;;;7.27;0.77;;;5.70;72.00;;;;;;5035712;28;20070;-70
2022/04/09 07:20:51;;;;;;;8.43;1.47;;;5.80;71.70;;;;;;5049174;28;20119;-71
2022/04/09 07:23:16;;;;;;;8.80;1.30;;;5.90;71.70;;;;;;5058535;28;20086;-71
2022/04/09 07:25:42;;;;;;;4.30;0.90;;;6.10;70.90;;;;;;5040965;28;20044;-71
2022/04/09 07:28:09;;;;;;;6.82;0.90;;;6.20;70.20;;;;;;5059022;28;20507;-71
2022/04/09 07:30:35;;;;;;;6.90;0.82;;;6.30;70.20;;;;;;5057136;28;20046;-71
2022/04/09 07:33:02;;;;;;;9.35;1.58;;;6.40;70.30;;;;;;5037373;28;20076;-71
2022/04/09 07:35:28;;;;;;;10.40;0.98;;;6.50;69.30;;;;;;5050751;28;20040;-71
2022/04/09 07:37:55;;;;;;;11.33;1.03;;;6.70;69.60;;;;;;5040482;28;20036;-71
2022/04/09 07:40:25;;;;;;;6.07;0.40;;;6.80;67.60;;;;;;5047930;28;20386;-71
2022/04/09 07:42:52;;;;;;;4.13;0.70;;;6.80;65.70;;;;;;5036529;28;20071;-71
2022/04/09 07:45:17;;;;;;;4.25;0.60;;;6.80;65.40;;;;;;5049432;28;20064;-71
2022/04/09 07:47:45;;;;;;;5.30;0.50;;;6.70;66.10;;;;;;5052707;28;20119;-71
2022/04/09 07:50:11;;;;;;;4.95;0.47;;;6.70;66.80;;;;;;5031272;28;20075;-71
2022/04/09 07:52:39;;;;;;;4.38;0.50;;;6.60;66.40;;;;;;5047357;28;20052;-71
2022/04/09 07:55:07;;;;;;;5.45;0.43;;;6.40;65.80;;;;;;5041997;28;20653;-70
2022/04/09 07:57:32;;;;;;;4.68;0.68;;;6.30;66.10;;;;;;5057492;28;20059;-71
2022/04/09 07:59:58;;;;;;;3.50;1.00;;;6.30;66.10;;;;;;5048634;28;20091;-71
2022/04/09 08:02:25;;;;;;;2.67;0.50;;;6.30;66.70;;;;;;5024863;28;20139;-71
2022/04/09 08:04:51;;;;;;;4.28;0.57;;;6.40;67.60;;;;;;5050547;28;20066;-71
2022/04/09 08:07:17;;;;;;;4.40;0.60;;;6.40;67.00;;;;;;5060760;28;20049;-71
2022/04/09 08:09:44;;;;;;;8.03;1.53;;;6.50;67.60;;;;;;5064327;28;20040;-71
2022/04/09 08:12:12;;;;;;;7.32;0.77;;;6.60;67.00;;;;;;5043659;28;20305;-71
2022/04/09 08:14:44;;;;;;;2.80;0.50;;;6.70;67.50;;;;;;5033274;28;20517;-70
2022/04/09 08:17:10;;;;;;;11.07;1.60;;;6.80;67.50;;;;;;5057348;28;20081;-70
2022/04/09 08:19:36;;;;;;;8.68;1.20;;;6.80;66.20;;;;;;5045562;28;20129;-70
2022/04/09 08:22:03;;;;;;;10.50;1.07;;;6.90;67.70;;;;;;5051399;28;20044;-71
2022/04/09 08:24:29;;;;;;;6.82;1.02;;;6.90;66.40;;;;;;5054226;28;20041;-71
2022/04/09 08:26:55;;;;;;;6.80;1.10;;;7.00;67.30;;;;;;5024710;28;20506;-71
2022/04/09 08:29:21;;;;;;;9.40;0.75;;;7.20;67.80;;;;;;5055244;28;20040;-70
2022/04/09 08:31:47;;;;;;;4.87;0.90;;;7.30;68.00;;;;;;5039232;28;20093;-70
2022/04/09 08:34:20;;;;;;;7.85;0.80;;;7.40;67.20;;;;;;5028132;28;20079;-70
2022/04/09 08:36:46;;;;;;;8.80;1.10;;;7.40;65.80;;;;;;5057271;28;20167;-71
2022/04/09 08:39:13;;;;;;;5.88;1.00;;;7.60;66.40;;;;;;5034431;28;20036;-70
2022/04/09 08:41:42;;;;;;;10.27;1.65;;;7.60;65.90;;;;;;5059724;28;20044;-71
2022/04/09 08:44:09;;;;;;;15.32;1.27;;;7.50;66.30;;;;;;5046352;28;20073;-71
2022/04/09 08:46:35;;;;;;;11.45;0.93;;;7.30;64.20;;;;;;5046410;28;20052;-71
2022/04/09 08:49:05;;;;;;;10.27;1.33;;;7.30;64.50;;;;;;5037271;28;20168;-71
2022/04/09 08:51:33;;;;;;;7.43;1.25;;;7.40;63.30;;;;;;5037861;28;20044;-71
2022/04/09 08:54:02;;;;;;;7.63;1.52;;;7.70;63.60;;;;;;5038387;28;20270;-71
2022/04/09 08:56:29;;;;;;;5.90;1.23;;;7.90;62.80;;;;;;5051305;28;20040;-71
2022/04/09 08:58:58;;;;;;;10.77;0.90;;;8.10;63.80;;;;;;5031194;28;20036;-71
2022/04/09 09:01:24;;;;;;;21.45;2.53;;;8.10;61.40;;;;;;5055204;28;21062;-71
2022/04/09 09:03:50;;;;;;;9.03;1.27;;;8.20;62.80;;;;;;5046022;28;20128;-70
2022/04/09 09:06:30;;;;;;;10.68;2.08;;;8.40;63.40;;;;;;5053061;28;20071;-71
2022/04/09 09:08:58;;;;;;;7.82;1.08;;;8.40;63.70;;;;;;5038468;28;20501;-71
2022/04/09 09:11:24;;;;;;;5.35;0.90;;;8.30;63.10;;;;;;5030927;28;20064;-70
2022/04/09 09:13:53;;;;;;;8.50;0.57;;;8.10;61.80;;;;;;5030346;28;20470;-71
2022/04/09 09:16:26;;;;;;;9.20;0.75;;;8.00;61.50;;;;;;5056233;28;20043;-71
2022/04/09 09:18:54;;;;;;;7.03;1.02;;;8.20;61.10;;;;;;5058272;28;20403;-71
2022/04/09 09:21:23;;;;;;;9.07;0.98;;;8.30;61.80;;;;;;5054626;28;20071;-71
2022/04/09 09:23:51;;;;;;;4.63;0.77;;;8.40;62.00;;;;;;5060262;28;20109;-71
2022/04/09 09:26:21;;;;;;;11.43;0.90;;;8.50;60.60;;;;;;5055874;28;20119;-70
2022/04/09 09:28:56;;;;;;;7.07;0.70;;;8.50;60.50;;;;;;5047156;28;20332;-71
2022/04/09 09:31:39;;;;;;;;;;;8.70;60.70;;;;;;5053534;28;20056;-70
2022/04/09 09:34:16;;;;;;;10.02;1.13;;;8.80;60.40;;;;;;5057601;28;19916;-70
2022/04/09 09:36:43;;;;;;;6.55;0.88;;;9.00;60.40;;;;;;5037072;28;20395;-70
2022/04/09 09:39:14;;;;;;;8.93;1.15;;;9.20;60.80;;;;;;5035101;28;20044;-70
2022/04/09 09:42:06;;;;;;;9.20;1.00;;;9.50;60.00;;;;;;5066187;28;20377;-70
2022/04/09 09:44:41;;;;;;;7.63;1.00;;;9.60;58.20;;;;;;5059373;28;20071;-70
2022/04/09 09:47:09;;;;;;;6.80;1.42;;;9.50;57.10;;;;;;5065811;28;20127;-70
2022/04/09 09:49:53;;;;;;;10.93;1.30;;;9.70;58.50;;;;;;5054603;28;20052;-70
2022/04/09 09:52:39;;;;;;;5.85;1.10;;;10.00;58.50;;;;;;5063612;28;20052;-70
2022/04/09 09:55:14;;;;;;;12.02;1.48;;;9.80;59.00;;;;;;5044265;28;20501;-70
2022/04/09 09:57:41;;;;;;;8.55;1.10;;;9.00;63.90;;;;;;5049761;28;20044;-70
2022/04/09 10:00:18;;;;;;;10.10;1.40;;;8.10;66.60;;;;;;5041458;28;20049;-70
2022/04/09 10:02:45;;;;;;;10.25;1.20;;;7.50;68.40;;;;;;5062508;28;20175;-70
2022/04/09 10:05:12;;;;;;;9.10;1.10;;;7.10;69.60;;;;;;5050083;28;20047;-70
2022/04/09 10:07:39;;;;;;;10.13;1.73;;;6.90;70.30;;;;;;5040270;28;20052;-69
2022/04/09 10:10:06;;;;;;;6.22;1.17;;;6.60;71.00;;;;;;5060671;28;20052;-70
2022/04/09 10:12:39;;;;;;;10.05;1.17;;;6.50;71.80;;;;;;5047308;28;20051;-70
2022/04/09 10:15:06;;;;;;;5.68;0.90;;;6.70;73.90;;;;;;5063933;28;20123;-71
2022/04/09 10:17:33;;;;;;;9.77;1.05;;;7.00;72.80;;;;;;5032628;28;20546;-70
2022/04/09 10:20:02;;;;;;;9.35;1.27;;;7.10;70.10;;;;;;5042410;28;20049;-70
2022/04/09 10:22:41;;;;;;;6.88;1.10;;;7.30;70.50;;;;;;5056427;28;20048;-70
2022/04/09 10:25:08;;;;;;;8.95;0.90;;;7.60;69.30;;;;;;5053075;28;20497;-70
2022/04/09 10:27:40;;;;;;;9.82;1.10;;;7.80;69.50;;;;;;5030416;28;20036;-70
2022/04/09 10:30:13;;;;;;;7.93;0.95;;;7.80;67.70;;;;;;5043797;28;20105;-70
2022/04/09 10:32:47;;;;;;;8.98;0.98;;;7.60;67.00;;;;;;5060159;28;20067;-70
2022/04/09 10:35:39;;;;;;;8.20;0.70;;;7.50;67.00;;;;;;5050602;28;20089;-70
2022/04/09 10:38:10;;;;;;;9.90;1.05;;;7.30;67.00;;;;;;5068366;28;20040;-70
2022/04/09 10:41:02;;;;;;;4.85;0.60;;;7.40;65.50;;;;;;5048306;28;20048;-70
2022/04/09 10:43:28;;;;;;;7.15;0.85;;;7.50;65.60;;;;;;5022472;28;20044;-70
2022/04/09 10:46:00;;;;;;;3.70;0.50;;;7.60;65.30;;;;;;5058669;28;20044;-70
2022/04/09 10:48:36;;;;;;;4.95;0.60;;;7.70;64.70;;;;;;5054261;28;20032;-70
2022/04/09 10:51:08;;;;;;;5.93;0.70;;;7.90;63.60;;;;;;5052140;28;20638;-70
2022/04/09 10:53:40;;;;;;;4.20;0.80;;;7.90;62.20;;;;;;5042478;28;20051;-71
2022/04/09 10:56:13;;;;;;;4.25;0.40;;;7.80;61.70;;;;;;5059037;28;20041;-70
2022/04/09 10:58:59;;;;;;;3.92;0.30;;;7.90;61.50;;;;;;5057887;28;20048;-70
2022/04/09 11:01:51;;;;;;;3.50;0.47;;;8.10;61.10;;;;;;5039084;28;20177;-70
2022/04/09 11:04:30;;;;;;;3.72;0.40;;;8.30;60.60;;;;;;5038654;28;20061;-70
2022/04/09 11:07:17;;;;;;;8.73;1.05;;;8.30;59.60;;;;;;5049867;28;20044;-70
2022/04/09 11:09:49;;;;;;;4.63;0.80;;;8.10;60.70;;;;;;5054479;28;20045;-70
2022/04/09 11:12:19;;;;;;;9.80;1.38;;;8.30;61.70;;;;;;5041550;28;20048;-70
2022/04/09 11:14:55;;;;;;;6.50;0.50;;;8.40;61.90;;;;;;5042658;28;20044;-71
2022/04/09 11:17:24;;;;;;;;;;;8.70;60.50;;;;;;5031685;28;20095;-70
2022/04/09 11:19:50;;;;;;;5.65;0.82;;;8.90;59.30;;;;;;5044221;28;19931;-70
2022/04/09 11:22:16;;;;;;;5.20;1.10;;;9.10;61.00;;;;;;5053005;28;20041;-70
2022/04/09 11:24:42;;;;;;;8.33;1.57;;;9.20;60.10;;;;;;5054833;28;20051;-70
2022/04/09 11:27:10;;;;;;;6.68;0.88;;;9.50;61.50;;;;;;5042392;28;20056;-70
2022/04/09 11:29:38;;;;;;;6.22;0.60;;;9.40;61.50;;;;;;5052305;28;20946;-70
2022/04/09 11:32:04;;;;;;;4.65;0.30;;;9.30;61.40;;;;;;5065098;28;20075;-71
2022/04/09 11:34:49;;;;;;;1.77;0.20;;;9.10;62.10;;;;;;5042841;28;20072;-71
2022/04/09 11:37:15;;;;;;;1.58;0.30;;;8.50;61.60;;;;;;5023762;28;20715;-71
2022/04/09 11:39:43;;;;;;;1.55;0.20;;;8.10;63.80;;;;;;5055917;28;20040;-71
2022/04/09 11:42:09;;;;;;;3.53;0.40;;;7.60;65.40;;;;;;5062767;28;20048;-71
2022/04/09 11:44:35;;;;;;;2.37;0.30;;;7.30;67.40;;;;;;5046175;28;20036;-71
2022/04/09 11:47:10;;;;;;;3.38;0.30;;;7.10;67.50;;;;;;5030892;28;20048;-71
2022/04/09 11:49:36;;;;;;;7.28;0.50;;;7.00;68.60;;;;;;5035364;28;20044;-71
2022/04/09 11:52:02;;;;;;;4.40;0.43;;;7.00;68.20;;;;;;5038331;28;20048;-71
2022/04/09 11:54:32;;;;;;;3.22;0.30;;;7.20;67.80;;;;;;5038458;28;20044;-71
2022/04/09 11:57:00;;;;;;;1.75;0.35;;;7.40;67.20;;;;;;5022540;28;20047;-71
2022/04/09 11:59:25;;;;;;;2.95;0.30;;;7.60;66.30;;;;;;5033278;28;20053;-71
2022/04/09 12:01:52;;;;;;;1.77;0.20;;;7.80;65.60;;;;;;5025418;28;20057;-71
2022/04/09 12:04:20;;;;;;;3.03;0.20;;;7.90;64.30;;;;;;5033288;28;20523;-71
2022/04/09 12:06:46;;;;;;;2.20;0.25;;;8.10;63.60;;;;;;5027648;28;20083;-71
2022/04/09 12:09:13;;;;;;;1.75;0.10;;;8.20;63.90;;;;;;5050664;28;20036;-71
2022/04/09 12:11:54;;;;;;;1.88;0.45;;;8.30;62.50;;;;;;5046174;28;20141;-70
2022/04/09 12:14:20;;;;;;;2.10;0.30;;;8.40;63.40;;;;;;5047052;28;20044;-71
2022/04/09 12:16:49;;;;;;;5.17;0.40;;;8.50;61.70;;;;;;5051786;28;20067;-71
2022/04/09 12:19:14;;;;;;;3.42;0.30;;;8.50;61.40;;;;;;5035221;28;20044;-71
2022/04/09 12:21:41;;;;;;;5.07;0.50;;;8.40;60.70;;;;;;5055489;28;20509;-71
2022/04/09 12:24:10;;;;;;;5.47;0.82;;;8.40;61.10;;;;;;5029103;28;20521;-71
2022/04/09 12:26:37;;;;;;;4.82;0.60;;;8.50;61.40;;;;;;5050312;28;20301;-71
2022/04/09 12:29:12;;;;;;;5.03;0.73;;;8.80;61.50;;;;;;5045524;28;20047;-71
2022/04/09 12:31:38;;;;;;;;;;;9.20;61.70;;;;;;5051136;28;20426;-71
2022/04/09 12:34:04;;;;;;;7.28;1.13;;;9.20;59.80;;;;;;5027484;28;19950;-71
2022/04/09 12:36:31;;;;;;;6.27;0.70;;;9.30;59.00;;;;;;5035399;28;20070;-71
2022/04/09 12:38:56;;;;;;;6.03;0.30;;;9.10;59.60;;;;;;5052632;28;20698;-71
2022/04/09 12:41:22;;;;;;;2.77;0.40;;;9.10;59.50;;;;;;5050032;28;20045;-71
2022/04/09 12:43:52;;;;;;;4.33;0.20;;;9.10;59.40;;;;;;5054720;28;20063;-70
2022/04/09 12:46:18;;;;;;;1.52;0.20;;;8.70;56.80;;;;;;5044399;28;20103;-70
2022/04/09 12:48:52;;;;;;;2.10;0.30;;;8.70;57.90;;;;;;5038723;28;20412;-71
2022/04/09 12:51:20;;;;;;;1.65;0.32;;;8.70;57.60;;;;;;5028960;28;20041;-71
2022/04/09 12:53:51;;;;;;;1.88;0.20;;;8.80;58.30;;;;;;5049680;28;20032;-70
2022/04/09 12:56:17;;;;;;;3.45;0.52;;;9.00;56.70;;;;;;5044427;28;20099;-70
2022/04/09 12:58:45;;;;;;;3.50;0.30;;;9.00;56.50;;;;;;5031467;28;20044;-70